Cocalinho, Brazil
Current Conditions -  °F | °C
As of 2:00 AM on Monday 24 Nov 2014 (Local Time) from SBAN Reporting Station
Light Rain Light Rain  
Wind Chill: 64°   Ceiling: 8000
Heat Index: 64°   Visibility: 6mi
Dew Point: 63°   Wind: 2mph
Humidity: 94%   Direction: 30°NNE
Pressure: 30.09"   Gusts: NA
Location:  14.4°S, 51°W
Report Text: SBAN 240400Z 03002KT 9999 -RA FEW010 BKN080 18/17 Q1019
Loading
Personal Weather Stations






























Interactive Weather Map New forecast layout! Learn more

10-Day Weather Forecast

Advertisements
Track Severe Weather on mobile